createdAt,value
2018-05-11T00:02:08.825Z,16.50
2018-05-11T00:04:37.731Z,16.50
2018-05-11T00:07:06.578Z,16.50
2018-05-11T00:09:35.451Z,16.50
2018-05-11T00:12:04.201Z,16.40
2018-05-11T00:14:33.868Z,16.50
2018-05-11T00:17:02.638Z,16.50
2018-05-11T00:19:31.450Z,16.40
2018-05-11T00:22:00.285Z,16.40
2018-05-11T00:24:29.224Z,16.40
2018-05-11T00:26:58.013Z,16.50
2018-05-11T00:29:27.035Z,16.50
2018-05-11T00:31:55.852Z,16.50
2018-05-11T00:34:25.621Z,16.50
2018-05-11T00:36:54.415Z,16.50
2018-05-11T00:39:23.210Z,16.50
2018-05-11T00:41:52.115Z,16.50
2018-05-11T00:44:20.894Z,16.50
2018-05-11T00:46:49.848Z,16.40
2018-05-11T00:49:19.681Z,16.40
2018-05-11T00:51:48.528Z,16.40
2018-05-11T00:54:17.326Z,16.50
2018-05-11T00:56:46.121Z,16.40
2018-05-11T00:59:15.009Z,16.30
2018-05-11T01:01:43.883Z,16.30
2018-05-11T01:04:12.861Z,16.40
2018-05-11T01:06:41.639Z,16.40
2018-05-11T01:09:10.564Z,16.40
2018-05-11T01:11:39.483Z,16.30
2018-05-11T01:14:08.462Z,16.30
2018-05-11T01:16:37.312Z,16.30
2018-05-11T01:19:06.296Z,16.40
2018-05-11T01:21:35.097Z,16.30
2018-05-11T01:24:04.689Z,16.40
2018-05-11T01:26:34.260Z,16.50
2018-05-11T01:29:02.976Z,16.50
2018-05-11T01:31:31.908Z,16.60
2018-05-11T01:34:00.720Z,16.50
2018-05-11T01:36:29.778Z,16.60
2018-05-11T01:38:58.590Z,16.60
2018-05-11T01:41:27.335Z,16.70
2018-05-11T01:43:56.155Z,16.70
2018-05-11T01:46:25.122Z,16.70
2018-05-11T01:48:54.092Z,16.60
2018-05-11T01:51:22.972Z,16.70
2018-05-11T01:53:51.981Z,16.70
2018-05-11T01:56:20.889Z,16.60
2018-05-11T01:58:49.618Z,16.60
2018-05-11T02:01:19.234Z,16.60
2018-05-11T02:03:47.975Z,16.60
2018-05-11T02:06:17.667Z,16.60
2018-05-11T02:08:47.201Z,16.60
2018-05-11T02:11:16.240Z,16.60
2018-05-11T02:13:45.130Z,16.60
2018-05-11T02:16:14.722Z,16.70
2018-05-11T02:18:43.673Z,16.70
2018-05-11T02:21:12.680Z,16.70
2018-05-11T02:23:41.485Z,16.70
2018-05-11T02:26:10.265Z,16.70
2018-05-11T02:28:39.151Z,16.80
2018-05-11T02:31:08.233Z,16.80
2018-05-11T02:33:37.034Z,16.80
2018-05-11T02:36:06.599Z,16.80
2018-05-11T02:38:35.399Z,16.80
2018-05-11T02:41:04.264Z,16.90
2018-05-11T02:43:33.151Z,16.90
2018-05-11T02:46:01.980Z,16.90
2018-05-11T02:48:30.859Z,16.90
2018-05-11T02:50:59.760Z,16.90
2018-05-11T02:53:28.493Z,16.80
2018-05-11T02:55:57.446Z,16.80
2018-05-11T02:58:27.196Z,16.90
2018-05-11T03:00:56.034Z,16.90
2018-05-11T03:03:24.790Z,16.90
2018-05-11T03:05:53.787Z,16.90
2018-05-11T03:08:22.527Z,16.90
2018-05-11T03:10:51.291Z,16.90
2018-05-11T03:13:20.057Z,16.90
2018-05-11T03:15:48.837Z,16.90
2018-05-11T03:18:17.699Z,17.00
2018-05-11T03:20:47.323Z,17.00
2018-05-11T03:23:16.117Z,16.90
2018-05-11T03:25:44.891Z,16.90
2018-05-11T03:28:14.525Z,16.90
2018-05-11T03:30:43.375Z,16.80
2018-05-11T03:33:12.429Z,16.90
2018-05-11T03:35:42.189Z,16.90
2018-05-11T03:38:11.745Z,16.90
2018-05-11T03:40:40.564Z,16.80
2018-05-11T03:43:10.075Z,16.80
2018-05-11T03:45:38.901Z,16.80
2018-05-11T03:48:08.405Z,16.90
2018-05-11T03:50:38.125Z,16.90
2018-05-11T03:53:07.208Z,16.90
2018-05-11T03:55:35.997Z,16.90
2018-05-11T03:58:04.975Z,16.90
2018-05-11T04:00:33.898Z,17.00
2018-05-11T04:03:14.376Z,16.90
2018-05-11T04:08:44.661Z,17.00
2018-05-11T04:11:13.451Z,17.00
2018-05-11T04:13:43.186Z,17.00
2018-05-11T04:16:12.086Z,17.10
2018-05-11T04:18:40.859Z,17.10
2018-05-11T04:21:09.792Z,17.10
2018-05-11T04:23:38.765Z,17.10
2018-05-11T04:26:08.475Z,17.20
2018-05-11T04:28:37.328Z,17.20
2018-05-11T04:31:06.142Z,17.20
2018-05-11T04:33:35.135Z,17.20
2018-05-11T04:36:04.294Z,16.70
2018-05-11T04:38:33.178Z,17.40
2018-05-11T04:41:01.935Z,17.40
2018-05-11T04:43:30.753Z,17.40
2018-05-11T04:46:00.452Z,17.40
2018-05-11T04:48:30.017Z,17.40
2018-05-11T04:50:59.594Z,17.40
2018-05-11T04:53:28.628Z,17.40
2018-05-11T04:55:57.497Z,17.40
2018-05-11T04:58:26.264Z,17.40
2018-05-11T05:00:55.915Z,17.30
2018-05-11T05:03:24.769Z,17.30
2018-05-11T05:05:53.579Z,17.20
2018-05-11T05:08:22.887Z,17.20
2018-05-11T05:10:51.781Z,17.20
2018-05-11T05:13:20.722Z,17.20
2018-05-11T05:15:49.538Z,17.20
2018-05-11T05:18:18.482Z,17.20
2018-05-11T05:20:47.276Z,17.10
2018-05-11T05:23:16.260Z,17.10
2018-05-11T05:25:45.102Z,17.10
2018-05-11T05:28:13.933Z,17.10
2018-05-11T05:30:42.824Z,17.00
2018-05-11T05:33:11.639Z,17.10
2018-05-11T05:35:41.285Z,17.10
2018-05-11T05:38:10.287Z,17.20
2018-05-11T05:40:39.238Z,17.10
2018-05-11T05:43:08.159Z,17.20
2018-05-11T05:45:36.938Z,17.30
2018-05-11T05:48:06.565Z,17.30
2018-05-11T05:50:35.349Z,17.30
2018-05-11T05:53:04.157Z,17.30
2018-05-11T05:55:32.912Z,17.30
2018-05-11T05:58:02.439Z,17.40
2018-05-11T06:00:31.410Z,17.30
2018-05-11T06:03:00.233Z,17.40
2018-05-11T06:05:29.904Z,17.50
2018-05-11T06:07:59.473Z,17.60
2018-05-11T06:10:29.245Z,17.70
2018-05-11T06:12:58.444Z,17.70
2018-05-11T06:15:27.403Z,17.80
2018-05-11T06:17:56.869Z,17.70
2018-05-11T06:20:25.776Z,17.70
2018-05-11T06:22:55.468Z,17.70
2018-05-11T06:25:24.286Z,17.60
2018-05-11T06:27:53.161Z,17.70
2018-05-11T06:30:22.012Z,17.70
2018-05-11T06:32:50.978Z,17.80
2018-05-11T06:35:19.928Z,17.70
2018-05-11T06:37:49.564Z,17.90
2018-05-11T06:40:18.539Z,17.90
2018-05-11T06:42:47.874Z,17.90
2018-05-11T06:45:17.924Z,17.90
2018-05-11T06:47:47.021Z,17.90
2018-05-11T06:50:15.922Z,17.80
2018-05-11T06:52:45.139Z,17.80
2018-05-11T06:55:14.284Z,17.80
2018-05-11T06:57:43.267Z,17.80
2018-05-11T07:00:13.033Z,18.00
2018-05-11T07:02:42.105Z,18.00
2018-05-11T07:05:10.939Z,18.10
2018-05-11T07:07:40.477Z,18.30
2018-05-11T07:10:09.274Z,18.30
2018-05-11T07:12:39.000Z,18.40
2018-05-11T07:15:07.737Z,18.40
2018-05-11T07:17:37.492Z,18.50
2018-05-11T07:20:06.245Z,18.50
2018-05-11T07:22:35.304Z,18.60
2018-05-11T07:25:04.331Z,18.70
2018-05-11T07:27:33.880Z,19.20
2018-05-11T07:30:02.692Z,19.20
2018-05-11T07:32:32.221Z,19.50
2018-05-11T07:35:01.179Z,19.50
2018-05-11T07:37:30.973Z,19.80
2018-05-11T07:39:59.936Z,19.80
2018-05-11T07:42:29.371Z,19.80
2018-05-11T07:44:58.201Z,19.80
2018-05-11T07:47:26.971Z,19.80
2018-05-11T07:49:55.785Z,19.80
2018-05-11T07:52:25.074Z,19.90
2018-05-11T07:54:53.901Z,20.00
2018-05-11T07:57:22.705Z,20.00
2018-05-11T07:59:51.437Z,20.00
2018-05-11T08:02:20.239Z,20.20
2018-05-11T08:04:49.461Z,20.50
2018-05-11T08:07:18.386Z,21.00
2018-05-11T08:09:47.328Z,20.70
2018-05-11T08:12:16.846Z,20.50
2018-05-11T08:14:45.655Z,20.50
2018-05-11T08:17:14.761Z,20.40
2018-05-11T08:19:43.791Z,20.10
2018-05-11T08:22:12.569Z,20.00
2018-05-11T08:24:41.357Z,19.90
2018-05-11T08:27:10.302Z,19.80
2018-05-11T08:29:39.657Z,19.80
2018-05-11T08:32:08.684Z,19.80
2018-05-11T08:34:38.537Z,19.70
2018-05-11T08:37:07.494Z,19.70
2018-05-11T08:39:36.325Z,19.70
2018-05-11T08:42:05.212Z,20.00
2018-05-11T08:44:34.216Z,19.90
2018-05-11T08:47:03.070Z,20.00
2018-05-11T08:49:31.802Z,20.10
2018-05-11T08:52:00.674Z,19.90
2018-05-11T08:54:29.457Z,19.60
2018-05-11T08:56:58.287Z,19.40
2018-05-11T08:59:28.072Z,19.30
2018-05-11T09:01:56.873Z,19.30
2018-05-11T09:04:26.438Z,19.60
2018-05-11T09:06:55.226Z,19.50
2018-05-11T09:09:24.023Z,19.50
2018-05-11T09:11:53.044Z,19.40
2018-05-11T09:14:22.116Z,19.40
2018-05-11T09:16:51.761Z,19.50
2018-05-11T09:19:20.673Z,19.50
2018-05-11T09:21:50.212Z,19.90
2018-05-11T09:24:20.007Z,19.90
2018-05-11T09:26:49.203Z,20.30
2018-05-11T09:29:18.096Z,20.50
2018-05-11T09:31:47.039Z,20.60
2018-05-11T09:34:16.812Z,20.30
2018-05-11T09:36:46.555Z,20.20
2018-05-11T09:39:16.088Z,20.10
2018-05-11T09:41:45.637Z,20.20
2018-05-11T09:44:14.778Z,20.20
2018-05-11T09:46:44.559Z,20.40
2018-05-11T09:49:13.542Z,20.40
2018-05-11T09:51:42.521Z,20.70
2018-05-11T09:54:11.284Z,20.40
2018-05-11T09:56:40.095Z,20.70
2018-05-11T09:59:08.878Z,20.60
2018-05-11T10:01:37.788Z,20.80
2018-05-11T10:04:06.550Z,21.10
2018-05-11T10:06:36.186Z,21.50
2018-05-11T10:09:05.927Z,21.80
2018-05-11T10:11:34.806Z,21.80
2018-05-11T10:14:03.708Z,22.40
2018-05-11T10:16:32.792Z,22.60
2018-05-11T10:19:01.707Z,22.30
2018-05-11T10:21:30.745Z,22.20
2018-05-11T10:24:00.314Z,21.60
2018-05-11T10:26:29.060Z,21.60
2018-05-11T10:28:58.044Z,21.30
2018-05-11T10:31:27.424Z,21.00
2018-05-11T10:33:56.294Z,20.80
2018-05-11T10:36:24.987Z,20.80
2018-05-11T10:38:54.569Z,20.70
2018-05-11T10:41:24.651Z,20.80
2018-05-11T10:43:54.395Z,20.80
2018-05-11T10:46:24.910Z,21.30
2018-05-11T10:48:53.877Z,21.30
2018-05-11T10:51:23.621Z,21.10
2018-05-11T10:53:52.736Z,21.10
2018-05-11T10:56:22.685Z,21.00
2018-05-11T10:58:51.651Z,21.00
2018-05-11T11:01:21.321Z,21.00
2018-05-11T11:03:50.092Z,20.90
2018-05-11T11:06:19.016Z,20.90
2018-05-11T11:08:48.776Z,21.10
2018-05-11T11:11:18.358Z,21.30
2018-05-11T11:13:47.255Z,21.30
2018-05-11T11:16:16.806Z,22.30
2018-05-11T11:18:45.550Z,22.20
2018-05-11T11:21:14.560Z,22.70
2018-05-11T11:23:43.365Z,22.30
2018-05-11T11:26:12.062Z,22.20
2018-05-11T11:28:40.968Z,22.10
2018-05-11T11:31:09.987Z,22.00
2018-05-11T11:33:38.721Z,21.80
2018-05-11T11:36:07.731Z,21.70
2018-05-11T11:38:36.647Z,21.60
2018-05-11T11:41:05.517Z,22.10
2018-05-11T11:43:34.595Z,22.20
2018-05-11T11:46:03.388Z,22.00
2018-05-11T11:48:32.355Z,22.00
2018-05-11T11:51:01.851Z,22.30
2018-05-11T11:53:30.625Z,22.30
2018-05-11T11:55:59.879Z,22.50
2018-05-11T11:58:28.640Z,22.00
2018-05-11T12:00:58.299Z,21.70
2018-05-11T12:03:27.118Z,21.70
2018-05-11T12:05:56.150Z,21.80
2018-05-11T12:08:25.031Z,22.20
2018-05-11T12:10:53.873Z,22.00
2018-05-11T12:13:23.470Z,22.10
2018-05-11T12:15:52.260Z,22.10
2018-05-11T12:18:21.183Z,22.60
2018-05-11T12:20:50.087Z,22.80
2018-05-11T12:23:19.003Z,23.20
2018-05-11T12:25:47.886Z,23.40
2018-05-11T12:28:16.847Z,23.20
2018-05-11T12:30:46.608Z,23.70
2018-05-11T12:33:15.400Z,23.70
2018-05-11T12:35:44.346Z,23.40
2018-05-11T12:38:13.129Z,22.80
2018-05-11T12:40:42.054Z,22.60
2018-05-11T12:43:11.089Z,22.80
2018-05-11T12:45:39.873Z,22.90
2018-05-11T12:48:08.836Z,22.90
2018-05-11T12:50:37.909Z,22.80
2018-05-11T12:53:06.974Z,22.80
2018-05-11T12:55:35.941Z,23.00
2018-05-11T12:58:05.909Z,22.80
2018-05-11T13:00:34.728Z,22.80
2018-05-11T13:03:03.959Z,22.60
2018-05-11T13:05:33.531Z,22.40
2018-05-11T13:08:03.210Z,22.40
2018-05-11T13:10:32.180Z,22.40
2018-05-11T13:13:01.831Z,21.80
2018-05-11T13:15:30.904Z,21.80
2018-05-11T13:18:00.349Z,21.60
2018-05-11T13:20:29.173Z,21.60
2018-05-11T13:22:58.148Z,21.80
2018-05-11T13:25:26.958Z,22.10
2018-05-11T13:27:55.697Z,22.30
2018-05-11T13:30:25.667Z,22.70
2018-05-11T13:32:54.374Z,22.70
2018-05-11T13:35:25.190Z,22.70
2018-05-11T13:37:54.850Z,22.50
2018-05-11T13:40:23.681Z,22.40
2018-05-11T13:42:53.280Z,22.00
2018-05-11T13:45:23.095Z,21.60
2018-05-11T13:47:51.969Z,21.50
2018-05-11T13:50:21.038Z,21.50
2018-05-11T13:52:50.673Z,21.50
2018-05-11T13:55:20.174Z,21.10
2018-05-11T13:57:49.154Z,21.00
2018-05-11T14:00:18.097Z,20.70
2018-05-11T14:02:47.641Z,20.70
2018-05-11T14:05:16.721Z,20.70
2018-05-11T14:07:45.532Z,20.50
2018-05-11T14:10:14.424Z,20.40
2018-05-11T14:12:43.304Z,20.30
2018-05-11T14:15:12.197Z,20.20
2018-05-11T14:17:41.392Z,20.10
2018-05-11T14:20:10.313Z,20.10
2018-05-11T14:22:39.674Z,19.90
2018-05-11T14:25:08.558Z,19.90
2018-05-11T14:27:37.597Z,19.90
2018-05-11T14:30:06.433Z,19.80
2018-05-11T14:32:35.322Z,19.70
2018-05-11T14:35:04.097Z,19.70
2018-05-11T14:37:33.732Z,19.60
2018-05-11T14:40:02.654Z,19.60
2018-05-11T14:42:31.610Z,19.50
2018-05-11T14:45:00.477Z,19.50
2018-05-11T14:47:30.185Z,19.50
2018-05-11T14:50:05.783Z,19.50
2018-05-11T14:52:35.626Z,19.40
2018-05-11T14:55:04.733Z,19.40
2018-05-11T14:57:34.352Z,19.30
2018-05-11T15:00:03.486Z,19.30
2018-05-11T15:02:34.199Z,19.30
2018-05-11T15:05:04.253Z,19.30
2018-05-11T15:07:33.171Z,19.10
2018-05-11T15:10:02.261Z,19.10
2018-05-11T15:12:31.469Z,19.20
2018-05-11T15:15:00.417Z,19.20
2018-05-11T15:17:29.345Z,19.20
2018-05-11T15:19:58.113Z,19.20
2018-05-11T15:22:26.945Z,19.30
2018-05-11T15:24:55.678Z,19.30
2018-05-11T15:27:24.824Z,19.30
2018-05-11T15:29:53.776Z,19.30
2018-05-11T15:32:23.678Z,19.50
2018-05-11T15:34:52.396Z,19.50
2018-05-11T15:37:21.205Z,19.60
2018-05-11T15:39:50.616Z,19.60
2018-05-11T15:42:24.325Z,19.50
2018-05-11T15:44:53.930Z,19.50
2018-05-11T15:47:23.443Z,19.40
2018-05-11T15:49:52.346Z,19.40
2018-05-11T15:52:21.292Z,19.30
2018-05-11T15:54:50.172Z,19.40
2018-05-11T15:57:19.753Z,19.40
2018-05-11T15:59:48.757Z,19.40
2018-05-11T16:02:18.353Z,19.30
2018-05-11T16:04:47.102Z,19.30
2018-05-11T16:07:16.031Z,19.30
2018-05-11T16:09:44.877Z,19.30
2018-05-11T16:12:14.566Z,19.20
2018-05-11T16:14:43.395Z,19.20
2018-05-11T16:17:12.302Z,19.10
2018-05-11T16:19:41.126Z,19.00
2018-05-11T16:22:09.998Z,18.90
2018-05-11T16:24:39.106Z,18.90
2018-05-11T16:27:08.147Z,18.80
2018-05-11T16:29:37.039Z,18.80
2018-05-11T16:32:05.819Z,18.80
2018-05-11T16:34:34.716Z,18.80
2018-05-11T16:37:03.750Z,18.70
2018-05-11T16:39:33.503Z,18.80
2018-05-11T16:42:02.340Z,18.80
2018-05-11T16:44:31.246Z,18.80
2018-05-11T16:47:00.898Z,18.80
2018-05-11T16:49:29.737Z,18.80
2018-05-11T16:51:58.565Z,18.80
2018-05-11T16:54:28.281Z,18.80
2018-05-11T16:56:58.004Z,18.70
2018-05-11T16:59:26.879Z,18.70
2018-05-11T17:01:55.664Z,18.70
2018-05-11T17:04:24.551Z,18.70
2018-05-11T17:06:53.422Z,18.60
2018-05-11T17:09:22.338Z,18.60
2018-05-11T17:11:51.178Z,18.60
2018-05-11T17:14:20.292Z,18.60
2018-05-11T17:16:49.125Z,18.60
2018-05-11T17:19:17.997Z,18.60
2018-05-11T17:21:47.376Z,18.60
2018-05-11T17:24:16.268Z,18.50
2018-05-11T17:26:45.773Z,18.50
2018-05-11T17:29:14.751Z,18.60
2018-05-11T17:31:43.502Z,18.50
2018-05-11T17:34:12.446Z,18.50
2018-05-11T17:36:41.269Z,18.50
2018-05-11T17:39:10.199Z,18.50
2018-05-11T17:41:39.296Z,18.50
2018-05-11T17:44:08.336Z,18.40
2018-05-11T17:46:37.110Z,18.40
2018-05-11T17:49:06.189Z,18.40
2018-05-11T17:51:35.703Z,18.40
2018-05-11T17:54:08.099Z,18.40
2018-05-11T17:56:37.381Z,18.40
2018-05-11T17:59:06.301Z,18.40
2018-05-11T18:01:35.146Z,18.30
2018-05-11T18:04:04.115Z,18.20
2018-05-11T18:06:34.211Z,18.00
2018-05-11T18:09:04.257Z,18.00
2018-05-11T18:11:37.709Z,18.00
2018-05-11T18:14:10.383Z,18.00
2018-05-11T18:16:40.277Z,17.90
2018-05-11T18:19:09.296Z,18.00
2018-05-11T18:21:38.552Z,17.80
2018-05-11T18:24:09.263Z,17.70
2018-05-11T18:26:40.022Z,17.60
2018-05-11T18:29:10.380Z,17.60
2018-05-11T18:31:39.557Z,17.60
2018-05-11T18:34:08.372Z,17.60
2018-05-11T18:36:37.333Z,17.50
2018-05-11T18:39:06.314Z,17.60
2018-05-11T18:41:35.157Z,17.60
2018-05-11T18:44:04.338Z,17.60
2018-05-11T18:46:33.534Z,17.50
2018-05-11T18:49:02.649Z,17.40
2018-05-11T18:51:33.189Z,17.40
2018-05-11T18:54:03.512Z,17.40
2018-05-11T18:56:33.150Z,17.30
2018-05-11T19:15:18.466Z,16.80
2018-05-11T19:17:48.206Z,16.70
2018-05-11T19:20:18.185Z,16.70
2018-05-11T19:22:47.877Z,16.70
2018-05-11T19:25:18.120Z,16.70
2018-05-11T19:27:50.087Z,16.70
2018-05-11T19:30:20.040Z,16.60
2018-05-11T19:32:49.694Z,16.70
2018-05-11T19:35:19.197Z,16.70
2018-05-11T19:37:48.100Z,16.60
2018-05-11T19:40:17.830Z,16.60
2018-05-11T19:42:46.875Z,16.60
2018-05-11T19:45:16.053Z,16.60
2018-05-11T19:47:45.944Z,16.60
2018-05-11T19:50:14.937Z,16.60
2018-05-11T19:52:43.927Z,16.60
2018-05-11T19:55:13.922Z,16.70
2018-05-11T19:57:43.649Z,16.70
2018-05-11T20:00:12.716Z,16.70
2018-05-11T20:02:42.380Z,16.80
2018-05-11T20:05:11.489Z,16.80
2018-05-11T20:07:40.344Z,16.80
2018-05-11T20:10:09.277Z,16.80
2018-05-11T20:12:38.210Z,16.80
2018-05-11T20:15:08.526Z,16.80
2018-05-11T20:17:37.427Z,16.80
2018-05-11T20:20:07.514Z,16.80
2018-05-11T20:22:36.553Z,16.70
2018-05-11T20:25:06.361Z,16.70
2018-05-11T20:27:35.212Z,16.70
2018-05-11T20:30:04.252Z,16.70
2018-05-11T20:32:33.598Z,16.70
2018-05-11T20:35:02.457Z,16.70
2018-05-11T20:37:31.431Z,16.70
2018-05-11T20:40:00.254Z,16.70
2018-05-11T20:42:29.928Z,16.70
2018-05-11T20:44:58.774Z,16.70
2018-05-11T20:47:28.303Z,16.70
2018-05-11T20:49:57.185Z,16.70
2018-05-11T20:52:25.990Z,16.70
2018-05-11T20:54:55.003Z,16.70
2018-05-11T20:57:23.826Z,16.60
2018-05-11T20:59:52.905Z,16.60
2018-05-11T21:02:21.916Z,16.60
2018-05-11T21:04:50.807Z,16.50
2018-05-11T21:07:19.690Z,16.50
2018-05-11T21:09:48.454Z,16.50
2018-05-11T21:12:17.896Z,16.50
2018-05-11T21:14:47.877Z,16.60
2018-05-11T21:17:18.174Z,16.60
2018-05-11T21:19:46.953Z,16.50
2018-05-11T21:22:16.577Z,16.60
2018-05-11T21:24:45.886Z,16.50
2018-05-11T21:27:14.959Z,16.50
2018-05-11T21:29:44.121Z,16.50
2018-05-11T21:32:12.924Z,16.40
2018-05-11T21:34:41.865Z,16.30
2018-05-11T21:37:10.817Z,16.30
2018-05-11T21:39:39.749Z,16.30
2018-05-11T21:42:08.513Z,16.30
2018-05-11T21:44:37.963Z,16.30
2018-05-11T21:47:07.669Z,16.30
2018-05-11T21:49:36.599Z,16.30
2018-05-11T21:52:05.564Z,16.30
2018-05-11T21:54:35.108Z,16.20
2018-05-11T21:57:04.091Z,16.20
2018-05-11T21:59:33.361Z,16.20
2018-05-11T22:02:02.370Z,16.20
2018-05-11T22:04:31.105Z,16.10
2018-05-11T22:07:00.988Z,16.10
2018-05-11T22:09:29.813Z,16.10
2018-05-11T22:11:58.602Z,16.00
2018-05-11T22:14:28.142Z,15.90
2018-05-11T22:16:57.064Z,15.90
2018-05-11T22:19:26.603Z,15.90
2018-05-11T22:21:56.235Z,15.90
2018-05-11T22:24:25.431Z,15.90
2018-05-11T22:26:54.096Z,15.90
2018-05-11T22:29:23.667Z,15.90
2018-05-11T22:31:52.413Z,15.90
2018-05-11T22:34:21.144Z,15.90
2018-05-11T22:36:49.901Z,16.00
2018-05-11T22:39:18.651Z,16.00
2018-05-11T22:41:48.233Z,16.00
2018-05-11T22:44:18.173Z,16.00
2018-05-11T22:46:47.676Z,16.00
2018-05-11T22:49:16.627Z,16.00
2018-05-11T22:51:45.422Z,16.00
2018-05-11T22:54:14.173Z,16.00
2018-05-11T22:56:43.697Z,16.00
2018-05-11T22:59:12.395Z,16.00
2018-05-11T23:01:41.112Z,16.00
2018-05-11T23:04:10.241Z,16.10
2018-05-11T23:06:39.228Z,16.00
2018-05-11T23:09:08.049Z,16.10
2018-05-11T23:11:36.833Z,16.10
2018-05-11T23:14:05.649Z,16.10
2018-05-11T23:16:34.446Z,16.10
2018-05-11T23:19:03.343Z,16.10
2018-05-11T23:21:32.209Z,16.10
2018-05-11T23:24:01.039Z,16.10
2018-05-11T23:26:29.792Z,16.20
2018-05-11T23:28:58.500Z,16.10
2018-05-11T23:31:27.600Z,16.20
2018-05-11T23:33:56.406Z,16.20
2018-05-11T23:36:25.132Z,16.20
2018-05-11T23:38:54.712Z,16.10
2018-05-11T23:41:23.510Z,16.10
2018-05-11T23:43:52.789Z,16.10
2018-05-11T23:46:21.840Z,16.20
2018-05-11T23:48:50.622Z,16.10
2018-05-11T23:51:19.585Z,16.10
2018-05-11T23:53:48.391Z,16.10
2018-05-11T23:56:17.889Z,16.00
2018-05-11T23:58:46.928Z,16.00
